createdAt,value
2022-07-25T00:01:42.911Z,17.03
2022-07-25T00:04:12.181Z,17.03
2022-07-25T00:06:39.471Z,17.03
2022-07-25T00:09:06.200Z,16.95
2022-07-25T00:11:32.967Z,16.92
2022-07-25T00:13:59.624Z,16.97
2022-07-25T00:16:26.524Z,16.90
2022-07-25T00:18:53.141Z,16.81
2022-07-25T00:21:19.751Z,16.72
2022-07-25T00:23:46.346Z,16.66
2022-07-25T00:26:12.943Z,16.63
2022-07-25T00:28:39.527Z,16.58
2022-07-25T00:31:06.180Z,16.60
2022-07-25T00:33:32.840Z,16.57
2022-07-25T00:35:59.805Z,16.55
2022-07-25T00:38:26.416Z,16.55
2022-07-25T00:40:54.250Z,16.56
2022-07-25T00:43:22.149Z,16.55
2022-07-25T00:45:48.699Z,16.47
2022-07-25T00:48:15.225Z,16.46
2022-07-25T00:50:42.207Z,16.43
2022-07-25T00:53:08.817Z,16.45
2022-07-25T00:55:36.070Z,16.46
2022-07-25T00:58:02.624Z,16.44
2022-07-25T01:00:29.534Z,16.40
2022-07-25T01:02:57.485Z,16.35
2022-07-25T01:05:24.175Z,16.35
2022-07-25T01:07:52.019Z,16.30
2022-07-25T01:10:18.659Z,16.36
2022-07-25T01:12:55.855Z,16.25
2022-07-25T01:15:25.966Z,16.18
2022-07-25T01:17:53.255Z,16.18
2022-07-25T01:20:25.100Z,16.26
2022-07-25T01:22:52.739Z,16.22
2022-07-25T01:25:20.020Z,16.25
2022-07-25T01:27:51.355Z,16.28
2022-07-25T01:30:22.832Z,16.36
2022-07-25T01:32:49.436Z,16.29
2022-07-25T01:35:16.443Z,16.39
2022-07-25T01:37:45.434Z,16.34
2022-07-25T01:40:14.252Z,16.30
2022-07-25T01:42:42.023Z,16.31
2022-07-25T01:45:09.542Z,16.26
2022-07-25T01:47:36.143Z,16.20
2022-07-25T01:50:03.734Z,16.14
2022-07-25T01:52:30.294Z,16.08
2022-07-25T01:54:56.866Z,16.12
2022-07-25T01:57:30.092Z,15.97
2022-07-25T01:59:58.597Z,16.03
2022-07-25T02:02:25.348Z,16.04
2022-07-25T02:04:51.976Z,15.95
2022-07-25T02:07:18.614Z,15.97
2022-07-25T02:09:45.180Z,15.90
2022-07-25T02:12:11.882Z,15.86
2022-07-25T02:14:38.540Z,15.85
2022-07-25T02:17:05.324Z,15.89
2022-07-25T02:19:31.907Z,15.80
2022-07-25T02:21:58.473Z,15.84
2022-07-25T02:24:25.031Z,15.80
2022-07-25T02:26:51.698Z,15.84
2022-07-25T02:29:18.388Z,15.84
2022-07-25T02:31:48.555Z,15.90
2022-07-25T02:34:15.139Z,15.80
2022-07-25T02:36:41.684Z,15.83
2022-07-25T02:39:08.262Z,15.70
2022-07-25T02:41:34.839Z,15.63
2022-07-25T02:44:01.377Z,15.54
2022-07-25T02:46:27.963Z,15.55
2022-07-25T02:48:54.691Z,15.57
2022-07-25T02:51:21.296Z,15.47
2022-07-25T02:53:57.077Z,15.49
2022-07-25T02:56:24.112Z,15.60
2022-07-25T02:58:51.133Z,15.60
2022-07-25T03:01:17.830Z,15.65
2022-07-25T03:03:44.554Z,15.61
2022-07-25T03:06:11.131Z,15.63
2022-07-25T03:08:37.747Z,15.69
2022-07-25T03:11:04.737Z,15.61
2022-07-25T03:13:33.080Z,15.64
2022-07-25T03:15:59.740Z,15.71
2022-07-25T03:18:26.348Z,15.64
2022-07-25T03:20:53.038Z,15.53
2022-07-25T03:23:19.559Z,15.51
2022-07-25T03:25:46.135Z,15.51
2022-07-25T03:28:12.710Z,15.47
2022-07-25T03:30:39.298Z,15.50
2022-07-25T03:33:05.821Z,15.45
2022-07-25T03:35:32.414Z,15.40
2022-07-25T03:37:59.034Z,15.30
2022-07-25T03:40:25.626Z,15.36
2022-07-25T03:42:52.194Z,15.35
2022-07-25T03:45:18.761Z,15.32
2022-07-25T03:47:45.349Z,15.31
2022-07-25T03:50:12.145Z,15.26
2022-07-25T03:52:38.826Z,15.40
2022-07-25T03:55:10.048Z,15.50
2022-07-25T03:57:37.009Z,15.49
2022-07-25T04:00:06.178Z,15.42
2022-07-25T04:02:33.256Z,15.46
2022-07-25T04:04:59.824Z,15.64
2022-07-25T04:07:26.658Z,16.30
2022-07-25T04:09:53.146Z,16.83
2022-07-25T04:12:19.809Z,17.03
2022-07-25T04:14:46.354Z,16.74
2022-07-25T04:17:13.063Z,16.76
2022-07-25T04:19:39.744Z,17.63
2022-07-25T04:22:06.418Z,18.66
2022-07-25T04:24:32.979Z,19.31
2022-07-25T04:26:59.565Z,19.97
2022-07-25T04:29:26.087Z,20.86
2022-07-25T04:31:52.671Z,21.28
2022-07-25T04:34:19.490Z,21.78
2022-07-25T04:36:46.079Z,21.36
2022-07-25T04:39:12.672Z,21.59
2022-07-25T04:41:39.295Z,22.05
2022-07-25T04:44:07.638Z,22.50
2022-07-25T04:46:34.922Z,22.79
2022-07-25T04:49:01.722Z,22.96
2022-07-25T04:51:28.384Z,22.93
2022-07-25T04:53:54.955Z,23.12
2022-07-25T04:56:21.486Z,23.76
2022-07-25T04:58:48.037Z,23.76
2022-07-25T05:01:14.778Z,23.51
2022-07-25T05:03:41.351Z,24.02
2022-07-25T05:06:16.736Z,23.77
2022-07-25T05:08:43.426Z,25.20
2022-07-25T05:11:10.030Z,25.39
2022-07-25T05:13:36.606Z,26.22
2022-07-25T05:16:03.238Z,26.19
2022-07-25T05:18:29.872Z,26.49
2022-07-25T05:20:56.552Z,26.72
2022-07-25T05:23:23.084Z,27.99
2022-07-25T05:25:49.629Z,27.57
2022-07-25T05:28:17.749Z,27.10
2022-07-25T05:30:44.342Z,27.21
2022-07-25T05:33:10.940Z,27.14
2022-07-25T05:35:37.625Z,28.28
2022-07-25T05:38:05.437Z,29.13
2022-07-25T05:40:32.004Z,29.14
2022-07-25T05:43:02.986Z,29.37
2022-07-25T05:45:30.649Z,29.99
2022-07-25T05:47:57.183Z,30.20
2022-07-25T05:50:23.801Z,30.84
2022-07-25T05:52:50.414Z,31.00
2022-07-25T05:55:17.614Z,31.82
2022-07-25T05:57:44.194Z,31.58
2022-07-25T06:00:11.308Z,31.21
2022-07-25T06:02:38.267Z,31.61
2022-07-25T06:05:05.395Z,31.31
2022-07-25T06:07:31.920Z,32.08
2022-07-25T06:09:58.761Z,32.05
2022-07-25T06:12:25.390Z,33.35
2022-07-25T06:14:52.173Z,34.06
2022-07-25T06:17:18.784Z,33.17
2022-07-25T06:19:45.451Z,34.97
2022-07-25T06:22:12.593Z,35.00
2022-07-25T06:24:41.638Z,35.09
2022-07-25T06:27:08.734Z,34.99
2022-07-25T06:29:35.483Z,34.15
2022-07-25T06:32:02.112Z,35.08
2022-07-25T06:34:29.060Z,35.29
2022-07-25T06:36:57.497Z,36.85
2022-07-25T06:39:25.385Z,37.22
2022-07-25T06:41:52.410Z,37.44
2022-07-25T06:44:19.105Z,35.56
2022-07-25T06:46:45.708Z,35.91
2022-07-25T06:49:12.480Z,36.09
2022-07-25T06:51:39.108Z,36.77
2022-07-25T06:54:05.969Z,38.25
2022-07-25T06:56:33.056Z,36.31
2022-07-25T06:59:00.431Z,37.43
2022-07-25T07:01:27.494Z,38.64
2022-07-25T07:03:54.155Z,36.85
2022-07-25T07:06:20.784Z,39.01
2022-07-25T07:08:47.330Z,37.88
2022-07-25T07:11:15.354Z,38.35
2022-07-25T07:13:41.978Z,38.82
2022-07-25T07:16:08.855Z,38.05
2022-07-25T07:18:35.560Z,37.74
2022-07-25T07:21:02.182Z,37.53
2022-07-25T07:23:29.027Z,39.49
2022-07-25T07:25:56.439Z,39.57
2022-07-25T07:28:23.133Z,37.84
2022-07-25T07:31:15.029Z,40.09
2022-07-25T07:33:37.620Z,39.42
2022-07-25T07:36:04.421Z,37.15
2022-07-25T07:38:30.966Z,39.67
2022-07-25T07:40:57.516Z,38.34
2022-07-25T07:43:29.370Z,38.46
2022-07-25T07:45:56.749Z,39.67
2022-07-25T07:48:23.309Z,40.64
2022-07-25T07:50:49.835Z,39.57
2022-07-25T07:53:16.374Z,39.60
2022-07-25T07:55:45.930Z,41.52
2022-07-25T07:58:15.844Z,40.06
2022-07-25T08:00:44.259Z,39.21
2022-07-25T08:03:10.898Z,39.56
2022-07-25T08:05:42.960Z,40.40
2022-07-25T08:08:12.056Z,41.26
2022-07-25T08:10:41.225Z,40.05
2022-07-25T08:13:17.851Z,43.04
2022-07-25T08:15:48.507Z,38.72
2022-07-25T08:18:17.468Z,39.60
2022-07-25T08:20:48.640Z,38.63
2022-07-25T08:23:15.577Z,39.59
2022-07-25T08:25:43.233Z,40.80
2022-07-25T08:28:10.297Z,40.50
2022-07-25T08:30:38.274Z,40.33
2022-07-25T08:33:07.994Z,42.88
2022-07-25T08:35:34.861Z,39.89
2022-07-25T08:38:02.788Z,40.05
2022-07-25T08:40:30.451Z,41.85
2022-07-25T08:42:58.475Z,40.94
2022-07-25T08:45:26.742Z,40.98
2022-07-25T08:47:54.556Z,41.40
2022-07-25T08:50:23.888Z,41.87
2022-07-25T08:52:57.439Z,41.36
2022-07-25T08:55:36.965Z,44.50
2022-07-25T08:58:03.549Z,42.24
2022-07-25T09:00:30.151Z,42.55
2022-07-25T09:03:02.528Z,43.43
2022-07-25T09:05:32.010Z,42.53
2022-07-25T09:08:10.435Z,42.52
2022-07-25T09:10:39.242Z,42.12
2022-07-25T09:13:10.904Z,44.87
2022-07-25T09:15:40.846Z,42.52
2022-07-25T09:18:15.975Z,42.71
2022-07-25T09:20:46.358Z,41.68
2022-07-25T09:23:28.274Z,43.02
2022-07-25T09:26:14.685Z,42.22
2022-07-25T09:28:47.405Z,42.86
2022-07-25T09:31:15.635Z,43.44
2022-07-25T09:33:51.696Z,42.45
2022-07-25T09:36:18.762Z,45.23
2022-07-25T09:38:55.905Z,42.74
2022-07-25T09:41:22.884Z,42.89
2022-07-25T09:43:49.412Z,42.39
2022-07-25T09:46:16.018Z,41.95
2022-07-25T09:48:45.199Z,42.08
2022-07-25T09:51:12.209Z,43.88
2022-07-25T09:53:40.348Z,44.27
2022-07-25T09:56:08.188Z,44.17
2022-07-25T09:58:34.651Z,43.44
2022-07-25T10:01:05.314Z,44.47
2022-07-25T10:03:51.404Z,44.22
2022-07-25T10:06:34.823Z,43.12
2022-07-25T10:09:01.485Z,41.42
2022-07-25T10:11:29.920Z,43.88
2022-07-25T10:13:57.130Z,43.01
2022-07-25T10:16:26.043Z,41.96
2022-07-25T10:18:57.851Z,43.43
2022-07-25T10:21:27.954Z,42.00
2022-07-25T10:24:03.713Z,42.55
2022-07-25T10:26:31.352Z,42.36
2022-07-25T10:28:59.090Z,42.71
2022-07-25T10:31:34.489Z,41.68
2022-07-25T10:34:04.228Z,42.68
2022-07-25T10:36:49.256Z,42.07
2022-07-25T10:39:18.363Z,42.26
2022-07-25T10:41:58.559Z,42.77
2022-07-25T10:44:30.495Z,42.39
2022-07-25T10:47:08.539Z,41.71
2022-07-25T10:50:13.494Z,41.65
2022-07-25T10:52:30.655Z,42.87
2022-07-25T10:54:59.362Z,43.27
2022-07-25T10:57:31.446Z,43.65
2022-07-25T11:00:06.617Z,44.38
2022-07-25T11:02:33.219Z,43.15
2022-07-25T11:05:02.030Z,42.35
2022-07-25T11:07:29.121Z,43.34
2022-07-25T11:10:01.254Z,42.53
2022-07-25T11:12:27.998Z,42.87
2022-07-25T11:15:08.153Z,42.69
2022-07-25T11:17:34.833Z,44.95
2022-07-25T11:20:06.910Z,43.22
2022-07-25T11:22:34.620Z,42.37
2022-07-25T11:25:02.351Z,42.35
2022-07-25T11:27:31.543Z,43.09
2022-07-25T11:30:15.632Z,42.87
2022-07-25T11:32:49.681Z,43.38
2022-07-25T11:35:22.082Z,42.92
2022-07-25T11:37:50.741Z,43.58
2022-07-25T11:40:18.568Z,41.82
2022-07-25T11:42:48.229Z,41.90
2022-07-25T11:45:34.064Z,41.16
2022-07-25T11:48:05.318Z,41.41
2022-07-25T11:50:33.503Z,42.86
2022-07-25T11:53:01.611Z,41.89
2022-07-25T11:55:30.631Z,41.78
2022-07-25T11:58:01.812Z,42.42
2022-07-25T12:00:29.586Z,42.32
2022-07-25T12:03:12.093Z,41.56
2022-07-25T12:05:42.329Z,40.96
2022-07-25T12:08:17.662Z,40.32
2022-07-25T12:10:47.535Z,40.75
2022-07-25T12:13:28.653Z,41.75
2022-07-25T12:15:59.716Z,41.44
2022-07-25T12:18:27.367Z,41.32
2022-07-25T12:20:54.050Z,41.68
2022-07-25T12:23:23.593Z,40.93
2022-07-25T12:25:50.873Z,41.75
2022-07-25T12:28:17.910Z,40.76
2022-07-25T12:30:46.420Z,40.74
2022-07-25T12:33:13.605Z,40.95
2022-07-25T12:35:41.238Z,41.84
2022-07-25T12:38:07.940Z,40.83
2022-07-25T12:40:34.626Z,40.98
2022-07-25T12:43:01.362Z,40.97
2022-07-25T12:45:28.193Z,40.72
2022-07-25T12:47:54.966Z,39.87
2022-07-25T12:50:22.330Z,40.55
2022-07-25T12:52:48.960Z,40.75
2022-07-25T12:55:18.518Z,40.38
2022-07-25T12:57:46.243Z,41.34
2022-07-25T13:00:15.648Z,40.68
2022-07-25T13:02:42.662Z,40.92
2022-07-25T13:05:10.269Z,39.74
2022-07-25T13:07:37.102Z,40.28
2022-07-25T13:10:04.714Z,40.50
2022-07-25T13:12:31.448Z,40.41
2022-07-25T13:14:57.996Z,40.96
2022-07-25T13:17:27.544Z,40.03
2022-07-25T13:19:55.380Z,40.28
2022-07-25T13:22:21.961Z,40.02
2022-07-25T13:24:48.577Z,39.65
2022-07-25T13:27:17.566Z,39.55
2022-07-25T13:29:44.146Z,39.28
2022-07-25T13:32:11.954Z,39.85
2022-07-25T13:34:38.611Z,39.54
2022-07-25T13:37:05.625Z,39.42
2022-07-25T13:39:32.136Z,38.30
2022-07-25T13:41:58.720Z,38.43
2022-07-25T13:44:25.209Z,38.02
2022-07-25T13:46:51.774Z,37.46
2022-07-25T13:49:18.478Z,37.23
2022-07-25T13:51:45.669Z,36.88
2022-07-25T13:54:12.946Z,37.16
2022-07-25T13:56:41.395Z,36.79
2022-07-25T13:59:08.870Z,37.03
2022-07-25T14:01:36.285Z,36.77
2022-07-25T14:04:02.964Z,36.96
2022-07-25T14:06:29.575Z,36.54
2022-07-25T14:08:56.129Z,36.38
2022-07-25T14:11:26.037Z,36.22
2022-07-25T14:13:56.907Z,36.50
2022-07-25T14:16:23.492Z,36.64
2022-07-25T14:18:50.792Z,36.49
2022-07-25T14:21:17.515Z,36.61
2022-07-25T14:23:44.128Z,36.61
2022-07-25T14:26:10.682Z,36.50
2022-07-25T14:28:37.491Z,36.49
2022-07-25T14:31:04.100Z,36.43
2022-07-25T14:33:30.769Z,36.40
2022-07-25T14:35:57.386Z,36.19
2022-07-25T14:38:23.927Z,36.08
2022-07-25T14:40:51.429Z,36.11
2022-07-25T14:43:18.078Z,36.27
2022-07-25T14:45:44.718Z,35.50
2022-07-25T14:48:11.250Z,35.79
2022-07-25T14:50:37.831Z,36.04
2022-07-25T14:53:04.360Z,35.81
2022-07-25T14:55:31.421Z,35.74
2022-07-25T14:58:02.324Z,35.87
2022-07-25T15:00:29.764Z,35.87
2022-07-25T15:02:57.140Z,35.64
2022-07-25T15:05:23.738Z,35.43
2022-07-25T15:07:50.381Z,35.51
2022-07-25T15:10:17.396Z,35.65
2022-07-25T15:12:43.943Z,35.39
2022-07-25T15:15:11.485Z,35.48
2022-07-25T15:17:38.729Z,35.50
2022-07-25T15:20:05.880Z,35.34
2022-07-25T15:22:32.512Z,35.17
2022-07-25T15:25:34.808Z,35.12
2022-07-25T15:27:45.687Z,34.97
2022-07-25T15:30:12.928Z,35.06
2022-07-25T15:32:40.205Z,34.94
2022-07-25T15:35:07.132Z,35.10
2022-07-25T15:37:33.704Z,35.05
2022-07-25T15:40:00.457Z,35.06
2022-07-25T15:42:29.181Z,35.09
2022-07-25T15:45:22.348Z,35.03
2022-07-25T15:47:45.198Z,35.02
2022-07-25T15:50:15.571Z,34.85
2022-07-25T15:52:42.153Z,34.72
2022-07-25T15:55:08.927Z,34.56
2022-07-25T15:57:35.526Z,34.48
2022-07-25T16:00:02.400Z,34.47
2022-07-25T16:02:28.945Z,34.42
2022-07-25T16:04:55.536Z,34.40
2022-07-25T16:07:22.170Z,34.31
2022-07-25T16:09:49.835Z,34.18
2022-07-25T16:12:16.531Z,34.17
2022-07-25T16:14:43.119Z,34.21
2022-07-25T16:17:09.906Z,34.16
2022-07-25T16:19:36.461Z,34.14
2022-07-25T16:22:02.997Z,33.94
2022-07-25T16:24:29.578Z,33.93
2022-07-25T16:26:56.225Z,33.82
2022-07-25T16:29:22.836Z,33.70
2022-07-25T16:31:51.055Z,33.68
2022-07-25T16:34:17.687Z,33.63
2022-07-25T16:36:44.385Z,33.57
2022-07-25T16:39:11.141Z,33.56
2022-07-25T16:41:37.840Z,33.47
2022-07-25T16:44:04.681Z,33.43
2022-07-25T16:46:31.381Z,33.05
2022-07-25T16:48:58.070Z,33.01
2022-07-25T16:51:24.762Z,32.81
2022-07-25T16:53:51.291Z,32.49
2022-07-25T16:56:18.091Z,32.25
2022-07-25T16:58:46.546Z,32.12
2022-07-25T17:01:14.232Z,32.09
2022-07-25T17:03:41.013Z,32.12
2022-07-25T17:06:08.334Z,32.21
2022-07-25T17:08:37.767Z,32.11
2022-07-25T17:11:05.225Z,31.98
2022-07-25T17:13:31.763Z,32.07
2022-07-25T17:15:58.540Z,31.93
2022-07-25T17:18:25.353Z,31.91
2022-07-25T17:20:53.188Z,31.82
2022-07-25T17:23:19.788Z,31.81
2022-07-25T17:25:50.505Z,31.76
2022-07-25T17:28:17.881Z,31.79
2022-07-25T17:30:45.624Z,31.71
2022-07-25T17:33:12.245Z,31.59
2022-07-25T17:35:38.827Z,31.53
2022-07-25T17:38:05.912Z,31.47
2022-07-25T17:40:34.507Z,31.33
2022-07-25T17:43:01.022Z,31.32
2022-07-25T17:45:27.557Z,31.22
2022-07-25T17:47:54.255Z,31.19
2022-07-25T17:50:28.612Z,30.98
2022-07-25T17:52:58.863Z,30.85
2022-07-25T17:55:26.163Z,30.77
2022-07-25T17:57:55.509Z,30.67
2022-07-25T18:00:23.552Z,30.52
2022-07-25T18:02:50.620Z,30.41
2022-07-25T18:05:18.472Z,30.26
2022-07-25T18:07:48.204Z,30.12
2022-07-25T18:10:18.329Z,30.01
2022-07-25T18:12:45.140Z,29.94
2022-07-25T18:15:12.344Z,29.80
2022-07-25T18:17:40.968Z,29.65
2022-07-25T18:20:08.194Z,29.56
2022-07-25T18:22:34.778Z,29.45
2022-07-25T18:25:01.393Z,29.26
2022-07-25T18:27:27.958Z,29.04
2022-07-25T18:29:54.552Z,28.90
2022-07-25T18:32:21.156Z,28.66
2022-07-25T18:34:47.717Z,28.41
2022-07-25T18:37:14.313Z,28.16
2022-07-25T18:39:42.106Z,27.96
2022-07-25T18:42:08.635Z,27.84
2022-07-25T18:44:35.188Z,27.62
2022-07-25T18:47:02.737Z,27.56
2022-07-25T18:49:29.403Z,27.42
2022-07-25T18:51:55.937Z,27.30
2022-07-25T18:54:22.571Z,27.31
2022-07-25T18:56:49.098Z,27.25
2022-07-25T18:59:16.027Z,27.14
2022-07-25T19:01:42.663Z,26.97
2022-07-25T19:04:09.563Z,26.93
2022-07-25T19:06:36.619Z,26.94
2022-07-25T19:09:03.694Z,26.95
2022-07-25T19:11:30.388Z,26.97
2022-07-25T19:13:57.565Z,27.50
2022-07-25T19:16:24.338Z,27.97
2022-07-25T19:18:50.956Z,27.88
2022-07-25T19:21:17.565Z,28.06
2022-07-25T19:23:50.188Z,28.13
2022-07-25T19:26:17.994Z,27.99
2022-07-25T19:28:44.642Z,28.09
2022-07-25T19:31:11.416Z,28.05
2022-07-25T19:33:38.858Z,27.84
2022-07-25T19:36:05.853Z,27.80
2022-07-25T19:38:32.742Z,27.75
2022-07-25T19:40:59.528Z,27.62
2022-07-25T19:43:26.131Z,27.46
2022-07-25T19:45:52.741Z,27.41
2022-07-25T19:48:23.557Z,27.24
2022-07-25T19:50:51.279Z,27.30
2022-07-25T19:53:17.857Z,27.29
2022-07-25T19:55:44.453Z,27.30
2022-07-25T19:58:11.133Z,27.30
2022-07-25T20:00:38.119Z,27.25
2022-07-25T20:03:05.167Z,27.11
2022-07-25T20:05:32.467Z,27.13
2022-07-25T20:07:59.034Z,27.11
2022-07-25T20:10:25.592Z,26.97
2022-07-25T20:12:52.167Z,26.95
2022-07-25T20:15:18.759Z,26.82
2022-07-25T20:17:45.339Z,26.76
2022-07-25T20:20:12.025Z,26.69
2022-07-25T20:22:38.649Z,26.61
2022-07-25T20:25:07.146Z,26.50
2022-07-25T20:27:34.135Z,26.36
2022-07-25T20:30:03.363Z,26.28
2022-07-25T20:32:30.464Z,26.22
2022-07-25T20:34:57.799Z,26.14
2022-07-25T20:37:24.538Z,26.07
2022-07-25T20:39:51.904Z,25.95
2022-07-25T20:42:18.627Z,25.90
2022-07-25T20:44:45.329Z,25.77
2022-07-25T20:47:14.740Z,25.66
2022-07-25T20:49:41.499Z,25.52
2022-07-25T20:52:09.071Z,25.55
2022-07-25T20:54:36.748Z,25.51
2022-07-25T20:57:03.994Z,25.34
2022-07-25T20:59:30.647Z,25.35
2022-07-25T21:01:57.652Z,25.27
2022-07-25T21:04:24.316Z,25.24
2022-07-25T21:06:50.916Z,25.16
2022-07-25T21:09:17.762Z,25.17
2022-07-25T21:11:44.434Z,25.10
2022-07-25T21:14:11.281Z,25.09
2022-07-25T21:16:38.022Z,25.09
2022-07-25T21:19:04.953Z,25.09
2022-07-25T21:21:32.113Z,25.13
2022-07-25T21:23:58.750Z,25.08
2022-07-25T21:26:25.751Z,25.25
2022-07-25T21:28:52.291Z,25.19
2022-07-25T21:31:19.217Z,25.30
2022-07-25T21:33:45.854Z,25.44
2022-07-25T21:36:12.394Z,25.58
2022-07-25T21:38:38.983Z,25.66
2022-07-25T21:41:06.639Z,25.91
2022-07-25T21:43:33.210Z,26.23
2022-07-25T21:45:59.768Z,26.32
2022-07-25T21:48:45.375Z,26.45
2022-07-25T21:51:19.139Z,26.36
2022-07-25T21:53:51.328Z,26.20
2022-07-25T21:56:18.586Z,26.11
2022-07-25T21:58:45.178Z,25.82
2022-07-25T22:01:11.881Z,25.60
2022-07-25T22:03:40.331Z,25.44
2022-07-25T22:06:08.400Z,25.29
2022-07-25T22:08:34.928Z,24.83
2022-07-25T22:11:15.918Z,24.50
2022-07-25T22:13:47.415Z,24.31
2022-07-25T22:16:14.027Z,24.15
2022-07-25T22:18:40.555Z,24.05
2022-07-25T22:21:07.112Z,23.83
2022-07-25T22:23:33.671Z,23.71
2022-07-25T22:26:03.538Z,23.45
2022-07-25T22:28:30.151Z,22.92
2022-07-25T22:30:57.754Z,22.57
2022-07-25T22:33:26.271Z,22.13
2022-07-25T22:35:52.798Z,21.92
2022-07-25T22:38:19.846Z,21.61
2022-07-25T22:40:46.744Z,21.46
2022-07-25T22:43:13.269Z,21.38
2022-07-25T22:45:42.917Z,21.23
2022-07-25T22:48:09.623Z,21.17
2022-07-25T22:50:36.173Z,21.00
2022-07-25T22:53:02.803Z,20.95
2022-07-25T22:55:29.407Z,20.87
2022-07-25T22:57:56.105Z,20.90
2022-07-25T23:00:22.685Z,20.91
2022-07-25T23:02:49.290Z,20.90
2022-07-25T23:05:16.196Z,20.90
2022-07-25T23:07:42.746Z,20.89
2022-07-25T23:10:10.101Z,20.85
2022-07-25T23:12:36.877Z,20.78
2022-07-25T23:15:04.482Z,20.81
2022-07-25T23:17:31.209Z,20.70
2022-07-25T23:19:58.418Z,20.70
2022-07-25T23:22:26.570Z,20.63
2022-07-25T23:24:53.101Z,20.70
2022-07-25T23:27:19.743Z,20.53
2022-07-25T23:29:46.369Z,20.37
2022-07-25T23:32:13.233Z,20.27
2022-07-25T23:34:40.571Z,20.10
2022-07-25T23:37:07.302Z,20.09
2022-07-25T23:39:33.900Z,20.02
2022-07-25T23:42:00.728Z,20.01
2022-07-25T23:44:27.449Z,19.89
2022-07-25T23:46:56.726Z,19.80
2022-07-25T23:49:24.042Z,19.79
2022-07-25T23:51:50.695Z,19.78
2022-07-25T23:54:17.283Z,19.71
2022-07-25T23:56:43.866Z,19.69
2022-07-25T23:59:10.955Z,19.60
